South Collingham, United Kingdom
Current Conditions -  °F | °C
As of 12:50 PM on Wednesday 22 Oct 2014 (Local Time) from EGXW Reporting Station
Scattered Clouds Scattered Clouds  
Wind Chill: 13°   Ceiling: Unl
Heat Index: 13°   Visibility: 6mi
Dew Point:   Wind: 13mph
Humidity: 67%   Direction: 270°W
Pressure: 30.18"   Gusts: NA
Location:  53.13°N, 0.77°W
Report Text: EGXW 221150Z 27011KT 9999 FEW025 SCT150 13/07 Q1022 BLU NOSIG
Loading
Personal Weather Stations






























Interactive Weather Map
Tropical Storm Tracking
New forecast layout! Learn more

10-Day Weather Forecast

Advertisements
Track Severe Weather on mobile